sensor_id;sensor_type;location;lat;lon;timestamp;P1;durP1;ratioP1;P2;durP2;ratioP2
76550;SDS011;65393;53.160;18.170;2023-02-02T00:02:00;9.50;;;2.90;;
76550;SDS011;65393;53.160;18.170;2023-02-02T00:04:29;12.80;;;4.20;;
76550;SDS011;65393;53.160;18.170;2023-02-02T00:07:00;17.90;;;3.40;;
76550;SDS011;65393;53.160;18.170;2023-02-02T00:09:30;12.50;;;2.50;;
76550;SDS011;65393;53.160;18.170;2023-02-02T00:11:58;14.70;;;2.80;;
76550;SDS011;65393;53.160;18.170;2023-02-02T00:14:26;8.50;;;2.70;;
76550;SDS011;65393;53.160;18.170;2023-02-02T00:16:54;10.00;;;3.10;;
76550;SDS011;65393;53.160;18.170;2023-02-02T00:19:26;11.70;;;2.90;;
76550;SDS011;65393;53.160;18.170;2023-02-02T00:21:55;17.10;;;3.10;;
76550;SDS011;65393;53.160;18.170;2023-02-02T00:24:23;11.10;;;2.70;;
76550;SDS011;65393;53.160;18.170;2023-02-02T00:26:54;7.70;;;2.00;;
76550;SDS011;65393;53.160;18.170;2023-02-02T00:29:26;12.50;;;2.80;;
76550;SDS011;65393;53.160;18.170;2023-02-02T00:31:55;11.10;;;2.30;;
76550;SDS011;65393;53.160;18.170;2023-02-02T00:34:23;11.00;;;2.60;;
76550;SDS011;65393;53.160;18.170;2023-02-02T00:36:51;12.80;;;2.60;;
76550;SDS011;65393;53.160;18.170;2023-02-02T00:39:19;13.20;;;2.30;;
76550;SDS011;65393;53.160;18.170;2023-02-02T00:41:48;12.10;;;2.40;;
76550;SDS011;65393;53.160;18.170;2023-02-02T00:44:15;11.70;;;2.00;;
76550;SDS011;65393;53.160;18.170;2023-02-02T00:47:01;13.20;;;2.30;;
76550;SDS011;65393;53.160;18.170;2023-02-02T00:49:28;12.70;;;2.30;;
76550;SDS011;65393;53.160;18.170;2023-02-02T00:51:55;10.10;;;2.00;;
76550;SDS011;65393;53.160;18.170;2023-02-02T00:54:22;6.90;;;1.60;;
76550;SDS011;65393;53.160;18.170;2023-02-02T00:56:48;10.00;;;2.00;;
76550;SDS011;65393;53.160;18.170;2023-02-02T00:59:15;12.70;;;2.30;;
76550;SDS011;65393;53.160;18.170;2023-02-02T01:01:42;15.20;;;1.90;;
76550;SDS011;65393;53.160;18.170;2023-02-02T01:04:09;10.50;;;1.60;;
76550;SDS011;65393;53.160;18.170;2023-02-02T01:06:35;8.50;;;1.70;;
76550;SDS011;65393;53.160;18.170;2023-02-02T01:09:02;11.90;;;1.50;;
76550;SDS011;65393;53.160;18.170;2023-02-02T01:11:30;7.80;;;1.70;;
76550;SDS011;65393;53.160;18.170;2023-02-02T01:13:56;7.30;;;2.10;;
76550;SDS011;65393;53.160;18.170;2023-02-02T01:16:23;9.50;;;1.80;;
76550;SDS011;65393;53.160;18.170;2023-02-02T01:18:50;12.60;;;2.10;;
76550;SDS011;65393;53.160;18.170;2023-02-02T01:21:17;7.80;;;1.30;;
76550;SDS011;65393;53.160;18.170;2023-02-02T01:23:44;8.40;;;1.80;;
76550;SDS011;65393;53.160;18.170;2023-02-02T01:26:12;11.20;;;1.70;;
76550;SDS011;65393;53.160;18.170;2023-02-02T01:28:39;13.20;;;2.80;;
76550;SDS011;65393;53.160;18.170;2023-02-02T01:31:07;11.20;;;1.50;;
76550;SDS011;65393;53.160;18.170;2023-02-02T01:33:36;11.50;;;1.80;;
76550;SDS011;65393;53.160;18.170;2023-02-02T01:36:06;10.30;;;1.60;;
76550;SDS011;65393;53.160;18.170;2023-02-02T01:38:35;10.00;;;1.80;;
76550;SDS011;65393;53.160;18.170;2023-02-02T01:41:03;19.20;;;2.20;;
76550;SDS011;65393;53.160;18.170;2023-02-02T01:43:50;11.50;;;1.90;;
76550;SDS011;65393;53.160;18.170;2023-02-02T01:48:53;12.60;;;1.90;;
76550;SDS011;65393;53.160;18.170;2023-02-02T01:51:47;9.50;;;1.80;;
76550;SDS011;65393;53.160;18.170;2023-02-02T01:54:17;11.00;;;2.20;;
76550;SDS011;65393;53.160;18.170;2023-02-02T01:56:52;10.10;;;2.20;;
76550;SDS011;65393;53.160;18.170;2023-02-02T01:59:23;11.60;;;2.00;;
76550;SDS011;65393;53.160;18.170;2023-02-02T02:01:52;11.60;;;2.00;;
76550;SDS011;65393;53.160;18.170;2023-02-02T02:04:21;14.40;;;2.70;;
76550;SDS011;65393;53.160;18.170;2023-02-02T02:06:49;13.60;;;2.40;;
76550;SDS011;65393;53.160;18.170;2023-02-02T02:09:19;9.60;;;2.80;;
76550;SDS011;65393;53.160;18.170;2023-02-02T02:11:46;15.20;;;3.40;;
76550;SDS011;65393;53.160;18.170;2023-02-02T02:14:14;14.20;;;3.10;;
76550;SDS011;65393;53.160;18.170;2023-02-02T02:22:51;17.40;;;3.80;;
76550;SDS011;65393;53.160;18.170;2023-02-02T02:40:27;28.80;;;5.00;;
76550;SDS011;65393;53.160;18.170;2023-02-02T02:42:58;19.90;;;3.00;;
76550;SDS011;65393;53.160;18.170;2023-02-02T02:45:46;26.70;;;4.70;;
76550;SDS011;65393;53.160;18.170;2023-02-02T02:48:14;17.10;;;3.40;;
76550;SDS011;65393;53.160;18.170;2023-02-02T02:50:40;15.70;;;2.80;;
76550;SDS011;65393;53.160;18.170;2023-02-02T02:53:09;14.60;;;2.40;;
76550;SDS011;65393;53.160;18.170;2023-02-02T02:55:53;21.10;;;3.00;;
76550;SDS011;65393;53.160;18.170;2023-02-02T03:01:17;14.40;;;2.20;;
76550;SDS011;65393;53.160;18.170;2023-02-02T03:06:27;14.40;;;2.40;;
76550;SDS011;65393;53.160;18.170;2023-02-02T03:08:59;9.10;;;1.90;;
76550;SDS011;65393;53.160;18.170;2023-02-02T03:11:30;14.50;;;2.70;;
76550;SDS011;65393;53.160;18.170;2023-02-02T03:13:57;16.50;;;2.40;;
76550;SDS011;65393;53.160;18.170;2023-02-02T03:16:23;13.80;;;2.70;;
76550;SDS011;65393;53.160;18.170;2023-02-02T03:18:50;15.00;;;2.60;;
76550;SDS011;65393;53.160;18.170;2023-02-02T03:21:17;10.30;;;2.00;;
76550;SDS011;65393;53.160;18.170;2023-02-02T03:23:44;12.20;;;2.80;;
76550;SDS011;65393;53.160;18.170;2023-02-02T03:26:10;8.00;;;1.90;;
76550;SDS011;65393;53.160;18.170;2023-02-02T03:28:37;16.20;;;3.90;;
76550;SDS011;65393;53.160;18.170;2023-02-02T03:31:04;10.60;;;2.10;;
76550;SDS011;65393;53.160;18.170;2023-02-02T03:33:32;14.70;;;2.30;;
76550;SDS011;65393;53.160;18.170;2023-02-02T03:36:02;9.70;;;2.40;;
76550;SDS011;65393;53.160;18.170;2023-02-02T03:38:29;12.20;;;2.10;;
76550;SDS011;65393;53.160;18.170;2023-02-02T03:40:56;11.10;;;1.90;;
76550;SDS011;65393;53.160;18.170;2023-02-02T03:43:23;8.10;;;1.60;;
76550;SDS011;65393;53.160;18.170;2023-02-02T03:46:00;11.90;;;2.80;;
76550;SDS011;65393;53.160;18.170;2023-02-02T03:48:29;6.70;;;1.30;;
76550;SDS011;65393;53.160;18.170;2023-02-02T03:50:57;17.30;;;3.20;;
76550;SDS011;65393;53.160;18.170;2023-02-02T03:53:24;16.70;;;3.30;;
76550;SDS011;65393;53.160;18.170;2023-02-02T03:55:50;8.20;;;1.40;;
76550;SDS011;65393;53.160;18.170;2023-02-02T03:58:17;7.60;;;1.80;;
76550;SDS011;65393;53.160;18.170;2023-02-02T04:00:47;10.40;;;1.90;;
76550;SDS011;65393;53.160;18.170;2023-02-02T04:03:14;6.20;;;1.30;;
76550;SDS011;65393;53.160;18.170;2023-02-02T04:05:41;8.10;;;1.80;;
76550;SDS011;65393;53.160;18.170;2023-02-02T04:08:07;5.70;;;1.70;;
76550;SDS011;65393;53.160;18.170;2023-02-02T04:10:34;7.40;;;1.60;;
76550;SDS011;65393;53.160;18.170;2023-02-02T04:13:01;7.80;;;1.70;;
76550;SDS011;65393;53.160;18.170;2023-02-02T04:15:27;5.20;;;1.20;;
76550;SDS011;65393;53.160;18.170;2023-02-02T04:17:54;4.60;;;1.30;;
76550;SDS011;65393;53.160;18.170;2023-02-02T04:20:21;6.90;;;1.60;;
76550;SDS011;65393;53.160;18.170;2023-02-02T04:22:47;5.80;;;1.30;;
76550;SDS011;65393;53.160;18.170;2023-02-02T04:25:14;3.60;;;0.90;;
76550;SDS011;65393;53.160;18.170;2023-02-02T04:27:41;7.20;;;1.80;;
76550;SDS011;65393;53.160;18.170;2023-02-02T04:30:08;7.80;;;1.40;;
76550;SDS011;65393;53.160;18.170;2023-02-02T04:32:35;11.00;;;2.10;;
76550;SDS011;65393;53.160;18.170;2023-02-02T04:35:02;7.10;;;2.90;;
76550;SDS011;65393;53.160;18.170;2023-02-02T04:37:30;17.80;;;6.10;;
76550;SDS011;65393;53.160;18.170;2023-02-02T04:39:57;26.10;;;7.90;;
76550;SDS011;65393;53.160;18.170;2023-02-02T04:42:24;15.10;;;5.50;;
76550;SDS011;65393;53.160;18.170;2023-02-02T04:44:51;25.90;;;8.70;;
76550;SDS011;65393;53.160;18.170;2023-02-02T04:47:17;15.20;;;5.60;;
76550;SDS011;65393;53.160;18.170;2023-02-02T04:49:44;26.20;;;8.60;;
76550;SDS011;65393;53.160;18.170;2023-02-02T04:52:11;32.70;;;10.90;;
76550;SDS011;65393;53.160;18.170;2023-02-02T04:54:37;20.10;;;7.50;;
76550;SDS011;65393;53.160;18.170;2023-02-02T04:57:04;17.00;;;6.30;;
76550;SDS011;65393;53.160;18.170;2023-02-02T04:59:31;20.70;;;7.00;;
76550;SDS011;65393;53.160;18.170;2023-02-02T05:01:58;10.20;;;5.20;;
76550;SDS011;65393;53.160;18.170;2023-02-02T05:04:26;5.40;;;2.60;;
76550;SDS011;65393;53.160;18.170;2023-02-02T05:06:53;6.50;;;2.60;;
76550;SDS011;65393;53.160;18.170;2023-02-02T05:09:20;6.50;;;1.80;;
76550;SDS011;65393;53.160;18.170;2023-02-02T05:11:46;6.10;;;3.00;;
76550;SDS011;65393;53.160;18.170;2023-02-02T05:14:13;3.30;;;1.80;;
76550;SDS011;65393;53.160;18.170;2023-02-02T05:16:43;6.10;;;2.30;;
76550;SDS011;65393;53.160;18.170;2023-02-02T05:19:10;2.60;;;1.40;;
76550;SDS011;65393;53.160;18.170;2023-02-02T05:21:37;6.30;;;2.50;;
76550;SDS011;65393;53.160;18.170;2023-02-02T05:24:04;3.20;;;2.00;;
76550;SDS011;65393;53.160;18.170;2023-02-02T05:26:31;6.00;;;2.30;;
76550;SDS011;65393;53.160;18.170;2023-02-02T05:28:58;7.30;;;3.40;;
76550;SDS011;65393;53.160;18.170;2023-02-02T05:31:25;11.60;;;4.60;;
76550;SDS011;65393;53.160;18.170;2023-02-02T05:33:51;13.00;;;4.90;;
76550;SDS011;65393;53.160;18.170;2023-02-02T05:36:18;21.50;;;6.90;;
76550;SDS011;65393;53.160;18.170;2023-02-02T05:38:45;20.20;;;8.20;;
76550;SDS011;65393;53.160;18.170;2023-02-02T05:41:12;19.40;;;8.30;;
76550;SDS011;65393;53.160;18.170;2023-02-02T05:43:38;14.70;;;7.50;;
76550;SDS011;65393;53.160;18.170;2023-02-02T05:46:06;21.60;;;8.10;;
76550;SDS011;65393;53.160;18.170;2023-02-02T05:48:32;8.00;;;4.60;;
76550;SDS011;65393;53.160;18.170;2023-02-02T05:51:06;13.30;;;6.50;;
76550;SDS011;65393;53.160;18.170;2023-02-02T05:53:41;15.30;;;6.40;;
76550;SDS011;65393;53.160;18.170;2023-02-02T05:56:11;12.10;;;5.20;;
76550;SDS011;65393;53.160;18.170;2023-02-02T05:58:38;13.90;;;5.60;;
76550;SDS011;65393;53.160;18.170;2023-02-02T06:01:05;11.60;;;5.60;;
76550;SDS011;65393;53.160;18.170;2023-02-02T06:03:32;10.40;;;4.30;;
76550;SDS011;65393;53.160;18.170;2023-02-02T06:05:59;4.60;;;2.70;;
76550;SDS011;65393;53.160;18.170;2023-02-02T06:08:26;8.20;;;3.80;;
76550;SDS011;65393;53.160;18.170;2023-02-02T06:10:52;8.30;;;3.50;;
76550;SDS011;65393;53.160;18.170;2023-02-02T06:13:19;5.40;;;1.90;;
76550;SDS011;65393;53.160;18.170;2023-02-02T06:15:46;4.00;;;1.60;;
76550;SDS011;65393;53.160;18.170;2023-02-02T06:18:13;2.20;;;1.30;;
76550;SDS011;65393;53.160;18.170;2023-02-02T06:20:40;3.60;;;1.70;;
76550;SDS011;65393;53.160;18.170;2023-02-02T06:23:07;2.30;;;1.20;;
76550;SDS011;65393;53.160;18.170;2023-02-02T06:25:34;2.10;;;1.00;;
76550;SDS011;65393;53.160;18.170;2023-02-02T06:28:00;3.70;;;2.00;;
76550;SDS011;65393;53.160;18.170;2023-02-02T06:30:27;2.20;;;1.40;;
76550;SDS011;65393;53.160;18.170;2023-02-02T06:32:54;5.50;;;2.10;;
76550;SDS011;65393;53.160;18.170;2023-02-02T06:35:20;2.30;;;1.40;;
76550;SDS011;65393;53.160;18.170;2023-02-02T06:37:47;3.50;;;1.60;;
76550;SDS011;65393;53.160;18.170;2023-02-02T06:40:14;3.00;;;1.50;;
76550;SDS011;65393;53.160;18.170;2023-02-02T06:42:41;3.00;;;1.60;;
76550;SDS011;65393;53.160;18.170;2023-02-02T06:45:08;2.60;;;1.40;;
76550;SDS011;65393;53.160;18.170;2023-02-02T06:47:36;3.10;;;1.20;;
76550;SDS011;65393;53.160;18.170;2023-02-02T06:50:03;3.50;;;1.50;;
76550;SDS011;65393;53.160;18.170;2023-02-02T06:52:30;1.80;;;1.30;;
76550;SDS011;65393;53.160;18.170;2023-02-02T06:54:57;2.10;;;1.30;;
76550;SDS011;65393;53.160;18.170;2023-02-02T06:57:23;4.90;;;1.50;;
76550;SDS011;65393;53.160;18.170;2023-02-02T06:59:50;4.00;;;1.60;;
76550;SDS011;65393;53.160;18.170;2023-02-02T07:02:17;2.70;;;1.60;;
76550;SDS011;65393;53.160;18.170;2023-02-02T07:04:44;2.60;;;1.70;;
76550;SDS011;65393;53.160;18.170;2023-02-02T07:07:11;4.20;;;1.80;;
76550;SDS011;65393;53.160;18.170;2023-02-02T07:09:38;3.30;;;2.00;;
76550;SDS011;65393;53.160;18.170;2023-02-02T07:12:05;3.90;;;1.70;;
76550;SDS011;65393;53.160;18.170;2023-02-02T07:14:32;4.00;;;1.80;;
76550;SDS011;65393;53.160;18.170;2023-02-02T07:16:59;2.80;;;2.00;;
76550;SDS011;65393;53.160;18.170;2023-02-02T07:19:25;2.90;;;1.90;;
76550;SDS011;65393;53.160;18.170;2023-02-02T07:21:52;3.20;;;1.80;;
76550;SDS011;65393;53.160;18.170;2023-02-02T07:24:19;2.50;;;1.60;;
76550;SDS011;65393;53.160;18.170;2023-02-02T07:26:45;3.60;;;1.70;;
76550;SDS011;65393;53.160;18.170;2023-02-02T07:29:12;3.60;;;1.70;;
76550;SDS011;65393;53.160;18.170;2023-02-02T07:31:39;2.00;;;1.50;;
76550;SDS011;65393;53.160;18.170;2023-02-02T07:34:06;2.90;;;1.50;;
76550;SDS011;65393;53.160;18.170;2023-02-02T07:36:33;2.70;;;1.60;;
76550;SDS011;65393;53.160;18.170;2023-02-02T07:39:00;4.70;;;1.50;;
76550;SDS011;65393;53.160;18.170;2023-02-02T07:41:30;3.50;;;1.40;;
76550;SDS011;65393;53.160;18.170;2023-02-02T07:44:00;1.80;;;1.10;;
76550;SDS011;65393;53.160;18.170;2023-02-02T07:46:27;3.20;;;1.00;;
76550;SDS011;65393;53.160;18.170;2023-02-02T07:48:54;2.70;;;1.30;;
76550;SDS011;65393;53.160;18.170;2023-02-02T07:51:22;2.70;;;1.20;;
76550;SDS011;65393;53.160;18.170;2023-02-02T07:53:51;2.90;;;1.10;;
76550;SDS011;65393;53.160;18.170;2023-02-02T07:56:23;2.90;;;1.40;;
76550;SDS011;65393;53.160;18.170;2023-02-02T07:58:51;2.40;;;1.00;;
76550;SDS011;65393;53.160;18.170;2023-02-02T08:01:19;3.80;;;1.60;;
76550;SDS011;65393;53.160;18.170;2023-02-02T08:03:48;3.40;;;1.90;;
76550;SDS011;65393;53.160;18.170;2023-02-02T08:08:45;1.80;;;1.20;;
76550;SDS011;65393;53.160;18.170;2023-02-02T08:11:14;4.20;;;1.60;;
76550;SDS011;65393;53.160;18.170;2023-02-02T08:13:43;3.20;;;1.70;;
76550;SDS011;65393;53.160;18.170;2023-02-02T08:16:10;5.40;;;2.10;;
76550;SDS011;65393;53.160;18.170;2023-02-02T08:18:38;2.50;;;1.30;;
76550;SDS011;65393;53.160;18.170;2023-02-02T08:21:06;2.70;;;1.40;;
76550;SDS011;65393;53.160;18.170;2023-02-02T08:23:37;4.50;;;1.70;;
76550;SDS011;65393;53.160;18.170;2023-02-02T08:26:08;3.70;;;1.40;;
76550;SDS011;65393;53.160;18.170;2023-02-02T08:28:38;2.00;;;1.30;;
76550;SDS011;65393;53.160;18.170;2023-02-02T08:33:42;2.50;;;1.60;;
76550;SDS011;65393;53.160;18.170;2023-02-02T08:36:12;3.00;;;1.20;;
76550;SDS011;65393;53.160;18.170;2023-02-02T08:38:43;1.60;;;1.10;;
76550;SDS011;65393;53.160;18.170;2023-02-02T08:41:12;2.80;;;1.30;;
76550;SDS011;65393;53.160;18.170;2023-02-02T08:43:40;0.90;;;0.80;;
76550;SDS011;65393;53.160;18.170;2023-02-02T08:46:07;3.00;;;1.60;;
76550;SDS011;65393;53.160;18.170;2023-02-02T08:48:36;1.90;;;1.20;;
76550;SDS011;65393;53.160;18.170;2023-02-02T08:51:03;2.30;;;1.10;;
76550;SDS011;65393;53.160;18.170;2023-02-02T08:53:31;1.30;;;1.10;;
76550;SDS011;65393;53.160;18.170;2023-02-02T08:56:05;2.50;;;1.10;;
76550;SDS011;65393;53.160;18.170;2023-02-02T08:58:35;1.40;;;0.80;;
76550;SDS011;65393;53.160;18.170;2023-02-02T09:01:04;1.70;;;0.90;;
76550;SDS011;65393;53.160;18.170;2023-02-02T09:03:38;3.10;;;1.20;;
76550;SDS011;65393;53.160;18.170;2023-02-02T09:06:06;2.40;;;0.90;;
76550;SDS011;65393;53.160;18.170;2023-02-02T09:08:34;1.70;;;1.20;;
76550;SDS011;65393;53.160;18.170;2023-02-02T09:11:06;2.00;;;1.10;;
76550;SDS011;65393;53.160;18.170;2023-02-02T09:13:38;2.10;;;1.20;;
76550;SDS011;65393;53.160;18.170;2023-02-02T09:16:08;2.20;;;1.10;;
76550;SDS011;65393;53.160;18.170;2023-02-02T09:18:36;3.60;;;1.10;;
76550;SDS011;65393;53.160;18.170;2023-02-02T09:21:04;3.50;;;1.20;;
76550;SDS011;65393;53.160;18.170;2023-02-02T09:23:33;1.60;;;0.90;;
76550;SDS011;65393;53.160;18.170;2023-02-02T09:26:16;2.00;;;0.90;;
76550;SDS011;65393;53.160;18.170;2023-02-02T09:28:44;1.70;;;0.80;;
76550;SDS011;65393;53.160;18.170;2023-02-02T09:31:13;1.60;;;1.00;;
76550;SDS011;65393;53.160;18.170;2023-02-02T09:33:40;2.20;;;1.20;;
76550;SDS011;65393;53.160;18.170;2023-02-02T09:38:42;3.30;;;0.80;;
76550;SDS011;65393;53.160;18.170;2023-02-02T09:49:06;1.10;;;0.70;;
76550;SDS011;65393;53.160;18.170;2023-02-02T09:51:44;3.70;;;0.60;;
76550;SDS011;65393;53.160;18.170;2023-02-02T09:54:18;2.70;;;0.70;;
76550;SDS011;65393;53.160;18.170;2023-02-02T09:56:50;1.90;;;0.70;;
76550;SDS011;65393;53.160;18.170;2023-02-02T09:59:22;0.90;;;0.70;;
76550;SDS011;65393;53.160;18.170;2023-02-02T10:01:54;2.20;;;0.90;;
76550;SDS011;65393;53.160;18.170;2023-02-02T10:04:36;1.90;;;0.60;;
76550;SDS011;65393;53.160;18.170;2023-02-02T10:07:10;1.50;;;0.60;;
76550;SDS011;65393;53.160;18.170;2023-02-02T10:14:59;0.20;;;0.20;;
76550;SDS011;65393;53.160;18.170;2023-02-02T10:25:56;2.60;;;0.60;;
76550;SDS011;65393;53.160;18.170;2023-02-02T10:34:14;2.60;;;0.70;;
76550;SDS011;65393;53.160;18.170;2023-02-02T10:43:34;0.90;;;0.40;;
76550;SDS011;65393;53.160;18.170;2023-02-02T10:45:55;0.50;;;0.40;;
76550;SDS011;65393;53.160;18.170;2023-02-02T10:48:25;1.00;;;0.60;;
76550;SDS011;65393;53.160;18.170;2023-02-02T10:50:58;0.60;;;0.50;;
76550;SDS011;65393;53.160;18.170;2023-02-02T10:53:30;0.90;;;0.40;;
76550;SDS011;65393;53.160;18.170;2023-02-02T10:55:59;1.10;;;0.50;;
76550;SDS011;65393;53.160;18.170;2023-02-02T10:58:37;1.30;;;0.60;;
76550;SDS011;65393;53.160;18.170;2023-02-02T11:01:06;0.90;;;0.30;;
76550;SDS011;65393;53.160;18.170;2023-02-02T11:03:36;1.90;;;0.50;;
76550;SDS011;65393;53.160;18.170;2023-02-02T11:06:06;2.00;;;0.70;;
76550;SDS011;65393;53.160;18.170;2023-02-02T11:08:53;0.90;;;0.50;;
76550;SDS011;65393;53.160;18.170;2023-02-02T11:11:37;1.30;;;0.40;;
76550;SDS011;65393;53.160;18.170;2023-02-02T11:16:42;0.70;;;0.40;;
76550;SDS011;65393;53.160;18.170;2023-02-02T11:21:40;1.40;;;0.60;;
76550;SDS011;65393;53.160;18.170;2023-02-02T11:27:20;1.50;;;0.50;;
76550;SDS011;65393;53.160;18.170;2023-02-02T11:29:48;1.60;;;0.60;;
76550;SDS011;65393;53.160;18.170;2023-02-02T11:34:45;3.90;;;1.20;;
76550;SDS011;65393;53.160;18.170;2023-02-02T11:37:13;1.90;;;0.80;;
76550;SDS011;65393;53.160;18.170;2023-02-02T11:39:45;2.00;;;0.90;;
76550;SDS011;65393;53.160;18.170;2023-02-02T11:44:47;1.50;;;1.00;;
76550;SDS011;65393;53.160;18.170;2023-02-02T11:47:20;3.90;;;0.80;;
76550;SDS011;65393;53.160;18.170;2023-02-02T11:49:49;1.90;;;0.80;;
76550;SDS011;65393;53.160;18.170;2023-02-02T11:52:18;1.70;;;0.70;;
76550;SDS011;65393;53.160;18.170;2023-02-02T11:54:49;2.10;;;0.60;;
76550;SDS011;65393;53.160;18.170;2023-02-02T11:57:19;1.50;;;0.50;;
76550;SDS011;65393;53.160;18.170;2023-02-02T11:59:49;1.00;;;0.70;;
76550;SDS011;65393;53.160;18.170;2023-02-02T12:04:47;1.90;;;0.80;;
76550;SDS011;65393;53.160;18.170;2023-02-02T12:07:21;2.20;;;1.00;;
76550;SDS011;65393;53.160;18.170;2023-02-02T12:10:00;1.60;;;0.60;;
76550;SDS011;65393;53.160;18.170;2023-02-02T12:12:42;2.00;;;0.90;;
76550;SDS011;65393;53.160;18.170;2023-02-02T12:45:35;1.90;;;0.80;;
76550;SDS011;65393;53.160;18.170;2023-02-02T12:56:26;2.20;;;0.50;;
76550;SDS011;65393;53.160;18.170;2023-02-02T13:05:07;1.20;;;0.60;;
76550;SDS011;65393;53.160;18.170;2023-02-02T13:08:07;2.30;;;0.60;;
76550;SDS011;65393;53.160;18.170;2023-02-02T13:10:38;1.50;;;0.60;;
76550;SDS011;65393;53.160;18.170;2023-02-02T13:13:13;1.00;;;0.50;;
76550;SDS011;65393;53.160;18.170;2023-02-02T13:15:48;0.80;;;0.30;;
76550;SDS011;65393;53.160;18.170;2023-02-02T13:18:22;1.00;;;0.40;;
76550;SDS011;65393;53.160;18.170;2023-02-02T13:20:57;0.70;;;0.40;;
76550;SDS011;65393;53.160;18.170;2023-02-02T13:23:35;0.80;;;0.50;;
76550;SDS011;65393;53.160;18.170;2023-02-02T13:28:54;0.70;;;0.50;;
76550;SDS011;65393;53.160;18.170;2023-02-02T13:34:16;1.40;;;0.40;;
76550;SDS011;65393;53.160;18.170;2023-02-02T13:36:58;1.00;;;0.70;;
76550;SDS011;65393;53.160;18.170;2023-02-02T13:39:35;0.70;;;0.20;;
76550;SDS011;65393;53.160;18.170;2023-02-02T13:42:07;1.80;;;0.40;;
76550;SDS011;65393;53.160;18.170;2023-02-02T13:44:52;1.10;;;0.30;;
76550;SDS011;65393;53.160;18.170;2023-02-02T13:47:45;0.90;;;0.50;;
76550;SDS011;65393;53.160;18.170;2023-02-02T13:50:16;0.90;;;0.50;;
76550;SDS011;65393;53.160;18.170;2023-02-02T14:00:53;1.50;;;0.60;;
76550;SDS011;65393;53.160;18.170;2023-02-02T14:06:03;2.50;;;0.70;;
76550;SDS011;65393;53.160;18.170;2023-02-02T14:08:33;3.60;;;0.50;;
76550;SDS011;65393;53.160;18.170;2023-02-02T14:11:02;0.70;;;0.40;;
76550;SDS011;65393;53.160;18.170;2023-02-02T14:13:44;3.20;;;0.70;;
76550;SDS011;65393;53.160;18.170;2023-02-02T14:18:59;0.50;;;0.40;;
76550;SDS011;65393;53.160;18.170;2023-02-02T14:24:01;1.20;;;0.60;;
76550;SDS011;65393;53.160;18.170;2023-02-02T14:45:40;1.60;;;0.60;;
76550;SDS011;65393;53.160;18.170;2023-02-02T14:48:09;2.50;;;1.20;;
76550;SDS011;65393;53.160;18.170;2023-02-02T14:53:28;1.20;;;0.60;;
76550;SDS011;65393;53.160;18.170;2023-02-02T15:06:31;0.40;;;0.40;;
76550;SDS011;65393;53.160;18.170;2023-02-02T15:14:31;5.30;;;2.20;;
76550;SDS011;65393;53.160;18.170;2023-02-02T15:17:10;1.40;;;0.70;;
76550;SDS011;65393;53.160;18.170;2023-02-02T15:22:49;2.00;;;0.60;;
76550;SDS011;65393;53.160;18.170;2023-02-02T15:30:48;2.30;;;0.80;;
76550;SDS011;65393;53.160;18.170;2023-02-02T15:33:34;20.30;;;6.40;;
76550;SDS011;65393;53.160;18.170;2023-02-02T15:36:08;12.00;;;3.60;;
76550;SDS011;65393;53.160;18.170;2023-02-02T15:38:42;1.70;;;0.70;;
76550;SDS011;65393;53.160;18.170;2023-02-02T15:41:27;1.60;;;0.50;;
76550;SDS011;65393;53.160;18.170;2023-02-02T15:43:58;2.20;;;0.70;;
76550;SDS011;65393;53.160;18.170;2023-02-02T15:46:26;1.70;;;0.70;;
76550;SDS011;65393;53.160;18.170;2023-02-02T15:52:09;3.40;;;1.40;;
76550;SDS011;65393;53.160;18.170;2023-02-02T15:54:47;2.10;;;0.80;;
76550;SDS011;65393;53.160;18.170;2023-02-02T15:57:24;2.50;;;0.80;;
76550;SDS011;65393;53.160;18.170;2023-02-02T15:59:54;0.60;;;0.50;;
76550;SDS011;65393;53.160;18.170;2023-02-02T16:05:01;0.90;;;0.50;;
76550;SDS011;65393;53.160;18.170;2023-02-02T16:07:48;2.40;;;0.80;;
76550;SDS011;65393;53.160;18.170;2023-02-02T16:10:17;5.80;;;2.30;;
76550;SDS011;65393;53.160;18.170;2023-02-02T16:12:46;5.90;;;0.70;;
76550;SDS011;65393;53.160;18.170;2023-02-02T16:15:20;0.80;;;0.40;;
76550;SDS011;65393;53.160;18.170;2023-02-02T16:17:59;4.50;;;1.00;;
76550;SDS011;65393;53.160;18.170;2023-02-02T16:20:28;1.80;;;0.70;;
76550;SDS011;65393;53.160;18.170;2023-02-02T16:25:30;1.30;;;0.70;;
76550;SDS011;65393;53.160;18.170;2023-02-02T16:27:59;0.80;;;0.50;;
76550;SDS011;65393;53.160;18.170;2023-02-02T16:30:28;2.10;;;0.60;;
76550;SDS011;65393;53.160;18.170;2023-02-02T16:32:56;1.80;;;0.60;;
76550;SDS011;65393;53.160;18.170;2023-02-02T16:35:34;2.10;;;0.60;;
76550;SDS011;65393;53.160;18.170;2023-02-02T16:38:22;2.40;;;1.10;;
76550;SDS011;65393;53.160;18.170;2023-02-02T16:41:08;2.70;;;1.00;;
76550;SDS011;65393;53.160;18.170;2023-02-02T16:43:41;1.20;;;0.70;;
76550;SDS011;65393;53.160;18.170;2023-02-02T16:48:54;4.40;;;1.00;;
76550;SDS011;65393;53.160;18.170;2023-02-02T16:51:27;1.40;;;1.00;;
76550;SDS011;65393;53.160;18.170;2023-02-02T16:56:46;2.00;;;0.90;;
76550;SDS011;65393;53.160;18.170;2023-02-02T17:02:02;2.10;;;1.00;;
76550;SDS011;65393;53.160;18.170;2023-02-02T17:04:42;5.10;;;1.40;;
76550;SDS011;65393;53.160;18.170;2023-02-02T17:07:15;2.40;;;1.00;;
76550;SDS011;65393;53.160;18.170;2023-02-02T17:09:43;1.60;;;0.70;;
76550;SDS011;65393;53.160;18.170;2023-02-02T17:14:52;2.60;;;1.00;;
76550;SDS011;65393;53.160;18.170;2023-02-02T17:17:19;5.50;;;2.10;;
76550;SDS011;65393;53.160;18.170;2023-02-02T17:19:46;13.20;;;4.70;;
76550;SDS011;65393;53.160;18.170;2023-02-02T17:22:13;20.10;;;6.80;;
76550;SDS011;65393;53.160;18.170;2023-02-02T17:24:43;13.70;;;3.50;;
76550;SDS011;65393;53.160;18.170;2023-02-02T17:27:13;4.90;;;1.60;;
76550;SDS011;65393;53.160;18.170;2023-02-02T17:29:44;3.20;;;1.20;;
76550;SDS011;65393;53.160;18.170;2023-02-02T17:32:12;1.90;;;0.70;;
76550;SDS011;65393;53.160;18.170;2023-02-02T17:34:39;4.40;;;1.20;;
76550;SDS011;65393;53.160;18.170;2023-02-02T17:37:06;7.70;;;2.40;;
76550;SDS011;65393;53.160;18.170;2023-02-02T17:39:33;18.50;;;4.50;;
76550;SDS011;65393;53.160;18.170;2023-02-02T17:41:59;2.70;;;1.00;;
76550;SDS011;65393;53.160;18.170;2023-02-02T17:44:26;3.80;;;1.30;;
76550;SDS011;65393;53.160;18.170;2023-02-02T17:46:53;3.00;;;0.90;;
76550;SDS011;65393;53.160;18.170;2023-02-02T17:49:20;2.40;;;1.00;;
76550;SDS011;65393;53.160;18.170;2023-02-02T17:51:47;4.20;;;1.40;;
76550;SDS011;65393;53.160;18.170;2023-02-02T17:54:16;11.90;;;4.10;;
76550;SDS011;65393;53.160;18.170;2023-02-02T17:56:42;3.80;;;1.30;;
76550;SDS011;65393;53.160;18.170;2023-02-02T17:59:09;5.70;;;1.30;;
76550;SDS011;65393;53.160;18.170;2023-02-02T18:01:37;4.60;;;1.60;;
76550;SDS011;65393;53.160;18.170;2023-02-02T18:04:06;2.60;;;1.20;;
76550;SDS011;65393;53.160;18.170;2023-02-02T18:06:37;3.50;;;1.10;;
76550;SDS011;65393;53.160;18.170;2023-02-02T18:09:05;4.00;;;1.40;;
76550;SDS011;65393;53.160;18.170;2023-02-02T18:11:32;2.80;;;1.20;;
76550;SDS011;65393;53.160;18.170;2023-02-02T18:13:59;4.40;;;1.80;;
76550;SDS011;65393;53.160;18.170;2023-02-02T18:16:25;5.10;;;1.60;;
76550;SDS011;65393;53.160;18.170;2023-02-02T18:18:52;2.60;;;1.30;;
76550;SDS011;65393;53.160;18.170;2023-02-02T18:21:19;2.80;;;1.10;;
76550;SDS011;65393;53.160;18.170;2023-02-02T18:23:47;3.90;;;1.90;;
76550;SDS011;65393;53.160;18.170;2023-02-02T18:26:15;4.30;;;1.40;;